Time;durP1;ratioP1;P1;durP2;ratioP2;P2;SDS_P1;SDS_P2;PMS_P1;PMS_P2;Temp;Humidity;BMP_temperature;BMP_pressure;BME280_temperature;BME280_humidity;BME280_pressure;Samples;Min_cycle;Max_cycle;Signal;HPM_P1;HPM_P2
2022/06/03 00:02:35;;;;;;;1.38;1.20;;;;;;;;;;5033559;28;20037;-87
2022/06/03 00:05:22;;;;;;;0.75;0.75;;;;;;;;;;5034465;28;20026;-89
2022/06/03 00:08:02;;;;;;;1.10;1.00;;;;;;;;;;5033175;28;20038;-89
2022/06/03 00:10:49;;;;;;;1.40;1.00;;;;;;;;;;5021718;28;20632;-89
2022/06/03 00:13:33;;;;;;;1.33;1.23;;;;;;;;;;5043789;28;20026;-90
2022/06/03 00:16:13;;;;;;;;;;;;;;;;;;5049811;28;20035;-87
2022/06/03 00:18:50;;;;;;;2.03;1.20;;;;;;;;;;5045619;28;19998;-89
2022/06/03 00:21:27;;;;;;;1.30;1.20;;;;;;;;;;5036765;28;20171;-90
2022/06/03 00:24:31;;;;;;;0.98;0.98;;;;;;;;;;5036209;28;20037;-90
2022/06/03 00:27:22;;;;;;;1.15;1.05;;;;;;;;;;5018188;28;20029;-90
2022/06/03 00:29:53;;;;;;;1.20;1.10;;;;;;;;;;5037275;28;20041;-91
2022/06/03 00:32:37;;;;;;;1.92;1.20;;;;;;;;;;5033651;28;20033;-90
2022/06/03 00:35:11;;;;;;;;;;;;;;;;;;5035097;28;20030;-87
2022/06/03 00:37:51;;;;;;;1.90;1.10;;;;;;;;;;5016239;28;20277;-89
2022/06/03 00:40:50;;;;;;;2.00;1.17;;;;;;;;;;5016536;28;20444;-89
2022/06/03 00:43:25;;;;;;;3.85;1.20;;;;;;;;;;5032750;28;20053;-89
2022/06/03 00:46:37;;;;;;;1.20;1.15;;;;;;;;;;5032437;28;20397;-89
2022/06/03 00:49:11;;;;;;;9.27;1.42;;;;;;;;;;5015961;28;20077;-90
2022/06/03 00:52:25;;;;;;;1.83;1.30;;;;;;;;;;5034830;28;20029;-90
2022/06/03 00:55:01;;;;;;;1.08;0.98;;;;;;;;;;5022222;28;20068;-89
2022/06/03 00:57:54;;;;;;;2.38;1.30;;;;;;;;;;5033033;28;20025;-89
2022/06/03 01:00:20;;;;;;;0.90;0.90;;;;;;;;;;5032638;28;20021;-88
2022/06/03 01:02:46;;;;;;;1.55;1.17;;;;;;;;;;5032687;28;20069;-89
2022/06/03 01:05:25;;;;;;;0.95;0.95;;;;;;;;;;5033816;28;20073;-89
2022/06/03 01:08:13;;;;;;;2.15;1.05;;;;;;;;;;5027093;28;20045;-88
2022/06/03 01:10:57;;;;;;;1.20;1.10;;;;;;;;;;5019928;28;20072;-88
2022/06/03 01:13:44;;;;;;;1.55;1.20;;;;;;;;;;5035231;28;20073;-89
2022/06/03 01:16:22;;;;;;;1.25;1.08;;;;;;;;;;5033892;28;20022;-88
2022/06/03 01:19:09;;;;;;;1.75;1.10;;;;;;;;;;5016183;28;20116;-89
2022/06/03 01:21:40;;;;;;;2.03;1.30;;;;;;;;;;5033342;28;20026;-89
2022/06/03 01:24:30;;;;;;;1.58;1.20;;;;;;;;;;5033848;28;20034;-89
2022/06/03 01:27:31;;;;;;;1.95;1.10;;;;;;;;;;5034300;28;20049;-89
2022/06/03 01:30:27;;;;;;;1.40;1.00;;;;;;;;;;5035299;28;20069;-89
2022/06/03 01:33:16;;;;;;;1.60;1.10;;;;;;;;;;5038148;28;20044;-88
2022/06/03 01:36:09;;;;;;;1.20;1.10;;;;;;;;;;5044462;28;20022;-88
2022/06/03 01:38:36;;;;;;;1.98;1.25;;;;;;;;;;5038634;28;20029;-89
2022/06/03 01:41:35;;;;;;;1.77;1.10;;;;;;;;;;5039950;28;20028;-88
2022/06/03 01:44:42;;;;;;;1.38;1.02;;;;;;;;;;5033130;28;20013;-87
2022/06/03 01:47:16;;;;;;;1.83;1.30;;;;;;;;;;4994665;28;20667;-86
2022/06/03 01:49:50;;;;;;;1.00;1.00;;;;;;;;;;5029888;28;20087;-86
2022/06/03 01:52:31;;;;;;;1.13;1.00;;;;;;;;;;5033291;28;20105;-87
2022/06/03 01:55:15;;;;;;;1.08;1.00;;;;;;;;;;5034200;28;20018;-88
2022/06/03 01:58:01;;;;;;;2.40;1.10;;;;;;;;;;5033879;28;20026;-88
2022/06/03 02:00:32;;;;;;;1.70;1.05;;;;;;;;;;5032531;28;20559;-87
2022/06/03 02:03:35;;;;;;;1.40;1.25;;;;;;;;;;5015225;28;20033;-88
2022/06/03 02:06:09;;;;;;;1.35;1.17;;;;;;;;;;5032519;28;20049;-88
2022/06/03 02:08:55;;;;;;;1.15;1.05;;;;;;;;;;5032985;28;20045;-88
2022/06/03 02:11:30;;;;;;;1.55;0.90;;;;;;;;;;5033451;28;20021;-88
2022/06/03 02:14:17;;;;;;;1.38;0.98;;;;;;;;;;5033106;28;20022;-89
2022/06/03 02:17:07;;;;;;;1.35;0.95;;;;;;;;;;5033363;28;20017;-87
2022/06/03 02:19:52;;;;;;;1.00;1.00;;;;;;;;;;5031504;28;20045;-87
2022/06/03 02:22:52;;;;;;;1.70;1.10;;;;;;;;;;5031800;28;20033;-88
2022/06/03 02:25:23;;;;;;;2.13;1.15;;;;;;;;;;5034846;28;20062;-87
2022/06/03 02:27:57;;;;;;;1.38;1.13;;;;;;;;;;5032465;28;20551;-87
2022/06/03 02:30:40;;;;;;;1.85;1.20;;;;;;;;;;5031699;28;20091;-87
2022/06/03 02:33:43;;;;;;;1.83;1.17;;;;;;;;;;5033577;28;20120;-89
2022/06/03 02:36:11;;;;;;;4.88;1.73;;;;;;;;;;5033357;28;20025;-92
2022/06/03 02:39:03;;;;;;;1.75;1.30;;;;;;;;;;5033625;28;20068;-89
2022/06/03 02:41:41;;;;;;;4.75;1.15;;;;;;;;;;5035775;28;20025;-89
2022/06/03 02:44:25;;;;;;;1.33;1.20;;;;;;;;;;5044982;28;20092;-89
2022/06/03 02:47:05;;;;;;;;;;;;;;;;;;5024576;28;20030;-86
2022/06/03 02:49:55;;;;;;;1.10;1.00;;;;;;;;;;5038090;28;19908;-86
2022/06/03 02:52:46;;;;;;;1.60;1.10;;;;;;;;;;5034473;28;20036;-86
2022/06/03 02:55:45;;;;;;;1.30;1.20;;;;;;;;;;5017961;28;20033;-85
2022/06/03 02:58:48;;;;;;;1.17;1.10;;;;;;;;;;5034397;28;20025;-85
2022/06/03 03:01:48;;;;;;;1.65;1.23;;;;;;;;;;5034408;28;20577;-86
2022/06/03 03:04:19;;;;;;;1.00;1.00;;;;;;;;;;5035832;28;20044;-85
2022/06/03 03:06:50;;;;;;;1.50;1.30;;;;;;;;;;5033968;28;20056;-86
2022/06/03 03:09:53;;;;;;;1.23;1.13;;;;;;;;;;5034388;28;20021;-86
2022/06/03 03:12:31;;;;;;;1.30;1.20;;;;;;;;;;5035389;28;20100;-85
2022/06/03 03:15:19;;;;;;;1.67;1.10;;;;;;;;;;5035263;28;20433;-85
2022/06/03 03:17:47;;;;;;;1.92;1.35;;;;;;;;;;5034452;28;20362;-87
2022/06/03 03:20:54;;;;;;;1.55;1.27;;;;;;;;;;5035399;28;20080;-88
2022/06/03 03:23:44;;;;;;;2.63;1.17;;;;;;;;;;5039208;28;20060;-88
2022/06/03 03:26:30;;;;;;;1.33;1.10;;;;;;;;;;5036338;28;20142;-89
2022/06/03 03:29:22;;;;;;;3.08;1.10;;;;;;;;;;5035283;28;20030;-89
2022/06/03 03:32:06;;;;;;;2.53;1.70;;;;;;;;;;5019307;28;20489;-89
2022/06/03 03:34:38;;;;;;;3.08;1.10;;;;;;;;;;5017694;28;20030;-90
2022/06/03 03:37:25;;;;;;;1.67;1.20;;;;;;;;;;5033887;28;20028;-90
2022/06/03 03:40:12;;;;;;;1.52;1.05;;;;;;;;;;5034510;28;20017;-88
2022/06/03 03:43:05;;;;;;;1.38;1.27;;;;;;;;;;5034725;28;20191;-87
2022/06/03 03:46:08;;;;;;;1.48;1.33;;;;;;;;;;5042646;28;20052;-90
2022/06/03 03:49:01;;;;;;;2.35;1.10;;;;;;;;;;5043139;28;20029;-89
2022/06/03 03:52:03;;;;;;;2.22;1.27;;;;;;;;;;5035905;28;20492;-88
2022/06/03 03:55:02;;;;;;;3.83;1.20;;;;;;;;;;5034856;28;20488;-88
2022/06/03 03:57:50;;;;;;;3.28;1.05;;;;;;;;;;5018179;28;20399;-88
2022/06/03 04:00:36;;;;;;;1.20;1.10;;;;;;;;;;5036445;28;20451;-88
2022/06/03 04:03:43;;;;;;;3.17;1.40;;;;;;;;;;5033168;28;20033;-88
2022/06/03 04:06:08;;;;;;;1.30;1.20;;;;;;;;;;5022572;28;20138;-88
2022/06/03 04:08:57;;;;;;;1.40;1.30;;;;;;;;;;5033532;28;20100;-88
2022/06/03 04:12:00;;;;;;;2.35;1.30;;;;;;;;;;5034257;28;20020;-89
2022/06/03 04:14:45;;;;;;;1.38;1.20;;;;;;;;;;4997496;28;20029;-86
2022/06/03 04:17:20;;;;;;;2.15;1.20;;;;;;;;;;5033534;28;20450;-86
2022/06/03 04:20:14;;;;;;;2.15;1.15;;;;;;;;;;5035812;28;20029;-87
2022/06/03 04:23:04;;;;;;;3.15;1.20;;;;;;;;;;5033437;28;20029;-86
2022/06/03 04:25:51;;;;;;;3.70;1.45;;;;;;;;;;5033418;28;20030;-86
2022/06/03 04:28:43;;;;;;;2.45;1.40;;;;;;;;;;5032965;28;20090;-87
2022/06/03 04:31:30;;;;;;;2.65;1.50;;;;;;;;;;5032645;28;20032;-86
2022/06/03 04:34:14;;;;;;;3.05;1.63;;;;;;;;;;5033588;28;20080;-86
2022/06/03 04:37:02;;;;;;;2.25;1.10;;;;;;;;;;5033511;28;20025;-83
2022/06/03 04:39:59;;;;;;;4.00;1.30;;;;;;;;;;5033121;28;20055;-87
2022/06/03 04:42:48;;;;;;;2.13;1.52;;;;;;;;;;5034415;28;20037;-85
2022/06/03 04:45:32;;;;;;;2.75;1.00;;;;;;;;;;5033413;28;20033;-80
2022/06/03 04:48:25;;;;;;;4.97;1.53;;;;;;;;;;5032063;28;20033;-83
2022/06/03 04:50:56;;;;;;;1.85;1.23;;;;;;;;;;5032983;28;20259;-82
2022/06/03 04:53:24;;;;;;;2.05;1.38;;;;;;;;;;5033269;28;20029;-85
2022/06/03 04:56:21;;;;;;;2.40;1.50;;;;;;;;;;5032812;28;20494;-83
2022/06/03 04:58:59;;;;;;;4.40;1.40;;;;;;;;;;5031705;28;20033;-85
2022/06/03 05:01:46;;;;;;;4.18;1.50;;;;;;;;;;5033472;28;20083;-85
2022/06/03 05:04:36;;;;;;;3.03;1.30;;;;;;;;;;5034265;28;20364;-85
2022/06/03 05:07:36;;;;;;;2.75;1.50;;;;;;;;;;5033451;28;20080;-86
2022/06/03 05:10:22;;;;;;;3.55;1.35;;;;;;;;;;5032771;28;20115;-85
2022/06/03 05:13:06;;;;;;;1.40;1.20;;;;;;;;;;5032293;28;20064;-85
2022/06/03 05:15:34;;;;;;;;;;;;;;;;;;5034016;28;20017;-83
2022/06/03 05:18:44;;;;;;;2.28;1.30;;;;;;;;;;5033952;28;19999;-85
2022/06/03 05:21:37;;;;;;;3.47;1.55;;;;;;;;;;4996248;28;20034;-85
2022/06/03 05:24:25;;;;;;;1.77;1.20;;;;;;;;;;5011870;28;20433;-83
2022/06/03 05:27:01;;;;;;;1.67;1.27;;;;;;;;;;5025726;28;20114;-84
2022/06/03 05:29:48;;;;;;;2.65;1.60;;;;;;;;;;5031771;28;20463;-84
2022/06/03 05:32:39;;;;;;;1.40;1.30;;;;;;;;;;5031879;28;20029;-83
2022/06/03 05:35:10;;;;;;;2.08;1.55;;;;;;;;;;5032760;28;20449;-84
2022/06/03 05:37:42;;;;;;;2.83;1.63;;;;;;;;;;5031528;28;20071;-83
2022/06/03 05:40:15;;;;;;;1.52;1.30;;;;;;;;;;5032109;28;20044;-84
2022/06/03 05:43:06;;;;;;;1.67;1.20;;;;;;;;;;5032479;28;20166;-85
2022/06/03 05:45:57;;;;;;;2.55;1.40;;;;;;;;;;5032276;28;20033;-83
2022/06/03 05:48:24;;;;;;;3.70;1.25;;;;;;;;;;5033341;28;20022;-84
2022/06/03 05:51:10;;;;;;;2.88;1.20;;;;;;;;;;5032123;28;20025;-84
2022/06/03 05:53:40;;;;;;;2.90;1.25;;;;;;;;;;5032840;28;20078;-85
2022/06/03 05:56:32;;;;;;;1.35;1.20;;;;;;;;;;5015325;28;20160;-84
2022/06/03 05:58:58;;;;;;;1.30;1.20;;;;;;;;;;5016007;28;20033;-85
2022/06/03 06:01:37;;;;;;;3.08;1.30;;;;;;;;;;5031963;28;20057;-84
2022/06/03 06:04:05;;;;;;;0.90;0.90;;;;;;;;;;5031541;28;20470;-86
2022/06/03 06:06:59;;;;;;;1.20;1.10;;;;;;;;;;5033745;28;20049;-85
2022/06/03 06:09:43;;;;;;;1.92;1.23;;;;;;;;;;5023366;28;20454;-86
2022/06/03 06:12:17;;;;;;;2.42;1.10;;;;;;;;;;5016181;28;20025;-84
2022/06/03 06:15:11;;;;;;;2.38;1.23;;;;;;;;;;5032616;28;20045;-84
2022/06/03 06:17:55;;;;;;;1.63;1.30;;;;;;;;;;5037448;28;20117;-84
2022/06/03 06:20:58;;;;;;;2.10;1.20;;;;;;;;;;5037755;28;20104;-85
2022/06/03 06:23:37;;;;;;;1.83;1.10;;;;;;;;;;5038120;28;20107;-84
2022/06/03 06:26:11;;;;;;;1.75;1.13;;;;;;;;;;5038270;28;20029;-85
2022/06/03 06:28:58;;;;;;;1.52;1.27;;;;;;;;;;5038810;28;20025;-85
2022/06/03 06:31:30;;;;;;;1.73;1.20;;;;;;;;;;5038476;28;20029;-83
2022/06/03 06:34:12;;;;;;;1.80;1.15;;;;;;;;;;5037931;28;20036;-82
2022/06/03 06:37:02;;;;;;;2.35;1.42;;;;;;;;;;5019484;28;20087;-82
2022/06/03 06:39:49;;;;;;;2.53;1.27;;;;;;;;;;5035421;28;20028;-84
2022/06/03 06:42:34;;;;;;;3.30;1.30;;;;;;;;;;5035588;28;20052;-84
2022/06/03 06:45:29;;;;;;;1.17;1.02;;;;;;;;;;5035202;28;20505;-82
2022/06/03 06:48:07;;;;;;;4.82;2.47;;;;;;;;;;5019590;28;20495;-85
2022/06/03 06:50:34;;;;;;;1.25;1.15;;;;;;;;;;5035225;28;20462;-85
2022/06/03 06:53:14;;;;;;;2.78;1.27;;;;;;;;;;5035422;28;20029;-84
2022/06/03 06:55:51;;;;;;;3.40;1.50;;;;;;;;;;5034879;28;20017;-87
2022/06/03 06:58:44;;;;;;;8.68;2.58;;;;;;;;;;5032706;28;20041;-83
2022/06/03 07:01:12;;;;;;;32.88;7.53;;;;;;;;;;5023416;28;20037;-85
2022/06/03 07:03:57;;;;;;;30.38;6.82;;;;;;;;;;5021804;28;20370;-85
2022/06/03 07:06:41;;;;;;;36.58;7.03;;;;;;;;;;5034832;28;20044;-84
2022/06/03 07:09:23;;;;;;;29.17;6.10;;;;;;;;;;5034811;28;20038;-84
2022/06/03 07:12:21;;;;;;;19.27;4.90;;;;;;;;;;5034440;28;20025;-83
2022/06/03 07:14:55;;;;;;;30.00;4.93;;;;;;;;;;4984306;28;20096;-83
2022/06/03 07:20:44;;;;;;;16.48;3.92;;;;;;;;;;5035119;28;20052;-83
2022/06/03 07:23:19;;;;;;;12.18;3.90;;;;;;;;;;5033771;28;20064;-83
2022/06/03 07:25:47;;;;;;;11.32;4.10;;;;;;;;;;5033517;28;20445;-83
2022/06/03 07:28:24;;;;;;;11.40;3.10;;;;;;;;;;5032682;28;20033;-83
2022/06/03 07:31:23;;;;;;;11.77;3.33;;;;;;;;;;5033825;28;20439;-81
2022/06/03 07:33:59;;;;;;;4.47;1.92;;;;;;;;;;5034050;28;20065;-81
2022/06/03 07:36:36;;;;;;;12.32;2.83;;;;;;;;;;5035802;28;20018;-81
2022/06/03 07:39:32;;;;;;;5.15;2.10;;;;;;;;;;5021002;28;20495;-81
2022/06/03 07:42:06;;;;;;;4.07;2.33;;;;;;;;;;5020296;28;20049;-82
2022/06/03 07:44:57;;;;;;;6.35;1.92;;;;;;;;;;5034961;28;20501;-81
2022/06/03 07:47:23;;;;;;;4.45;2.20;;;;;;;;;;5037220;28;20096;-82
2022/06/03 07:49:59;;;;;;;5.40;2.00;;;;;;;;;;5035574;28;20104;-82
2022/06/03 07:52:27;;;;;;;8.43;2.08;;;;;;;;;;5034233;28;20024;-81
2022/06/03 07:54:55;;;;;;;6.47;2.15;;;;;;;;;;5037302;28;20032;-82
2022/06/03 07:57:24;;;;;;;3.10;1.60;;;;;;;;;;5035884;28;20029;-82
2022/06/03 07:59:50;;;;;;;4.32;1.88;;;;;;;;;;5035213;28;20029;-81
2022/06/03 08:02:18;;;;;;;3.13;1.40;;;;;;;;;;5034420;28;20378;-82
2022/06/03 08:04:47;;;;;;;3.88;1.55;;;;;;;;;;5034045;28;20034;-82
2022/06/03 08:13:10;;;;;;;7.47;1.67;;;;;;;;;;5034143;28;20080;-82
2022/06/03 08:15:49;;;;;;;7.80;1.80;;;;;;;;;;5016938;28;20485;-82
2022/06/03 08:18:16;;;;;;;4.80;1.60;;;;;;;;;;5032644;28;20021;-81
2022/06/03 08:20:48;;;;;;;5.35;1.67;;;;;;;;;;5016791;28;20029;-84
2022/06/03 08:23:16;;;;;;;3.78;1.67;;;;;;;;;;5033136;28;20021;-84
2022/06/03 08:25:43;;;;;;;3.92;1.45;;;;;;;;;;5033125;28;20025;-86
2022/06/03 08:28:13;;;;;;;7.32;2.22;;;;;;;;;;5017316;28;20037;-85
2022/06/03 08:30:39;;;;;;;2.33;1.27;;;;;;;;;;5016459;28;20140;-85
2022/06/03 08:33:10;;;;;;;6.15;1.70;;;;;;;;;;5017035;28;20033;-85
2022/06/03 08:35:38;;;;;;;5.57;1.38;;;;;;;;;;5035856;28;20033;-84
2022/06/03 08:38:04;;;;;;;2.45;1.40;;;;;;;;;;5017312;28;20051;-84
2022/06/03 08:41:02;;;;;;;4.50;1.73;;;;;;;;;;5032056;28;20111;-84
2022/06/03 08:43:30;;;;;;;4.80;1.30;;;;;;;;;;5021928;28;20037;-85
2022/06/03 08:46:23;;;;;;;3.17;1.33;;;;;;;;;;5034093;28;20026;-79
2022/06/03 08:48:51;;;;;;;4.95;1.27;;;;;;;;;;5050874;28;20061;-82
2022/06/03 08:51:39;;;;;;;2.65;1.23;;;;;;;;;;5051130;28;20105;-83
2022/06/03 08:54:37;;;;;;;4.50;1.23;;;;;;;;;;5051524;28;20024;-83
2022/06/03 08:57:12;;;;;;;2.67;1.05;;;;;;;;;;5032611;28;20028;-82
2022/06/03 08:59:49;;;;;;;9.02;1.23;;;;;;;;;;5051308;28;20388;-82
2022/06/03 09:02:21;;;;;;;3.83;1.60;;;;;;;;;;5034179;28;20033;-82
2022/06/03 09:04:50;;;;;;;2.90;1.35;;;;;;;;;;5051141;28;20033;-81
2022/06/03 09:07:19;;;;;;;2.22;1.15;;;;;;;;;;5050952;28;20060;-81
2022/06/03 09:09:49;;;;;;;2.83;1.45;;;;;;;;;;5051875;28;20020;-82
2022/06/03 09:12:53;;;;;;;2.22;1.05;;;;;;;;;;5051831;28;20536;-81
2022/06/03 09:15:22;;;;;;;1.50;1.15;;;;;;;;;;5046437;28;20029;-83
2022/06/03 09:17:56;;;;;;;2.13;1.30;;;;;;;;;;5034665;28;20192;-81
2022/06/03 09:20:38;;;;;;;2.15;1.08;;;;;;;;;;5054296;28;20052;-80
2022/06/03 09:23:10;;;;;;;2.03;1.15;;;;;;;;;;5030706;28;20078;-81
2022/06/03 09:25:40;;;;;;;1.10;1.00;;;;;;;;;;5050517;28;20029;-80
2022/06/03 09:28:07;;;;;;;2.95;1.30;;;;;;;;;;5050668;28;20472;-80
2022/06/03 09:30:38;;;;;;;2.13;1.33;;;;;;;;;;5034406;28;20037;-80
2022/06/03 09:33:06;;;;;;;1.50;1.15;;;;;;;;;;5050704;28;20031;-80
2022/06/03 09:35:34;;;;;;;3.50;1.05;;;;;;;;;;5048718;28;20040;-81
2022/06/03 09:38:01;;;;;;;2.30;1.10;;;;;;;;;;5052784;28;20048;-80
2022/06/03 09:40:34;;;;;;;1.40;1.00;;;;;;;;;;5051984;28;20493;-81
2022/06/03 09:43:04;;;;;;;2.25;1.10;;;;;;;;;;5034663;28;20029;-81
2022/06/03 09:45:31;;;;;;;2.08;1.20;;;;;;;;;;5034150;28;20025;-81
2022/06/03 09:47:57;;;;;;;3.40;1.10;;;;;;;;;;5051661;28;20028;-80
2022/06/03 09:50:25;;;;;;;1.20;1.10;;;;;;;;;;5034988;28;20017;-81
2022/06/03 09:53:02;;;;;;;1.65;1.10;;;;;;;;;;5039196;28;20051;-80
2022/06/03 09:55:31;;;;;;;3.72;1.23;;;;;;;;;;5055431;28;20013;-80
2022/06/03 09:57:59;;;;;;;1.42;1.10;;;;;;;;;;5038093;28;20499;-80
2022/06/03 10:00:35;;;;;;;2.05;1.10;;;;;;;;;;5055077;28;20070;-80
2022/06/03 10:03:00;;;;;;;1.45;1.10;;;;;;;;;;5037898;28;20143;-80
2022/06/03 10:05:26;;;;;;;1.25;1.15;;;;;;;;;;5031007;28;20029;-80
2022/06/03 10:07:58;;;;;;;1.73;1.30;;;;;;;;;;5018249;28;20500;-80
2022/06/03 10:13:08;;;;;;;;;;;;;;;;;;5035276;28;20029;-80
2022/06/03 10:15:42;;;;;;;1.85;1.20;;;;;;;;;;5019331;28;19916;-81
2022/06/03 10:18:17;;;;;;;1.33;1.23;;;;;;;;;;5034963;28;20033;-80
2022/06/03 10:20:43;;;;;;;1.38;1.10;;;;;;;;;;5037744;28;20029;-80
2022/06/03 10:23:10;;;;;;;1.90;1.13;;;;;;;;;;5035404;28;20373;-80
2022/06/03 10:25:40;;;;;;;1.83;1.10;;;;;;;;;;5036110;28;20028;-81
2022/06/03 10:28:08;;;;;;;1.20;1.10;;;;;;;;;;5018651;28;20033;-81
2022/06/03 10:30:37;;;;;;;2.08;1.10;;;;;;;;;;5018714;28;20034;-81
2022/06/03 10:33:05;;;;;;;1.30;1.10;;;;;;;;;;5017876;28;20025;-80
2022/06/03 10:35:37;;;;;;;1.17;1.08;;;;;;;;;;5042971;28;20033;-80
2022/06/03 10:38:04;;;;;;;0.90;0.90;;;;;;;;;;5055355;28;20029;-80
2022/06/03 10:40:30;;;;;;;1.23;1.13;;;;;;;;;;5055305;28;20066;-80
2022/06/03 10:42:58;;;;;;;1.95;1.17;;;;;;;;;;5038775;28;20455;-81
2022/06/03 10:45:29;;;;;;;1.42;1.27;;;;;;;;;;5055885;28;20021;-79
2022/06/03 10:47:54;;;;;;;0.90;0.90;;;;;;;;;;5054672;28;20025;-79
2022/06/03 10:50:35;;;;;;;4.20;1.77;;;;;;;;;;5055182;28;20033;-78
2022/06/03 11:01:40;;;;;;;3.60;2.10;;;;;;;;;;5054249;28;19978;-80
2022/06/03 11:04:05;;;;;;;4.45;1.73;;;;;;;;;;5053707;28;20170;-79
2022/06/03 11:06:38;;;;;;;5.75;2.10;;;;;;;;;;5036628;28;20053;-79
2022/06/03 11:09:08;;;;;;;3.30;1.85;;;;;;;;;;5055606;28;20108;-77
2022/06/03 11:11:47;;;;;;;3.95;2.03;;;;;;;;;;5054277;28;20091;-79
2022/06/03 11:14:28;;;;;;;2.92;1.60;;;;;;;;;;5054979;28;20021;-78
2022/06/03 11:16:54;;;;;;;2.30;1.45;;;;;;;;;;5037428;28;20031;-78
2022/06/03 11:19:20;;;;;;;4.88;1.63;;;;;;;;;;5055530;28;20029;-79
2022/06/03 11:21:46;;;;;;;2.03;1.50;;;;;;;;;;5036791;28;20017;-78
2022/06/03 11:24:11;;;;;;;4.57;1.35;;;;;;;;;;5050231;28;20036;-78
2022/06/03 11:26:40;;;;;;;2.33;1.60;;;;;;;;;;5032082;28;20048;-78
2022/06/03 11:29:17;;;;;;;3.10;1.95;;;;;;;;;;5017465;28;20137;-78
2022/06/03 11:31:46;;;;;;;4.97;2.13;;;;;;;;;;5035446;28;20029;-77
2022/06/03 11:34:14;;;;;;;5.97;1.73;;;;;;;;;;5018663;28;20041;-78
2022/06/03 11:36:50;;;;;;;3.15;1.67;;;;;;;;;;5018054;28;20036;-79
2022/06/03 11:39:43;;;;;;;2.13;1.50;;;;;;;;;;5034746;28;20017;-79
2022/06/03 11:42:18;;;;;;;3.13;1.92;;;;;;;;;;5051453;28;20036;-78
2022/06/03 11:44:51;;;;;;;2.45;1.42;;;;;;;;;;5052369;28;20466;-78
2022/06/03 11:47:21;;;;;;;3.40;1.50;;;;;;;;;;5018596;28;20051;-79
2022/06/03 11:49:46;;;;;;;5.15;1.45;;;;;;;;;;5034679;28;20533;-79
2022/06/03 11:52:13;;;;;;;2.67;1.58;;;;;;;;;;5036325;28;20072;-79
2022/06/03 11:54:39;;;;;;;1.95;1.50;;;;;;;;;;5018119;28;20060;-79
2022/06/03 11:57:07;;;;;;;3.00;1.67;;;;;;;;;;5035591;28;20033;-78
2022/06/03 11:59:38;;;;;;;2.83;1.52;;;;;;;;;;5034666;28;20021;-79
2022/06/03 12:02:12;;;;;;;2.63;1.63;;;;;;;;;;5034490;28;20039;-79
2022/06/03 12:05:05;;;;;;;2.30;1.40;;;;;;;;;;5035414;28;20041;-79
2022/06/03 12:07:42;;;;;;;1.67;1.20;;;;;;;;;;5035086;28;20057;-78
2022/06/03 12:10:13;;;;;;;2.10;1.30;;;;;;;;;;5036439;28;20079;-79
2022/06/03 12:15:32;;;;;;;3.15;1.60;;;;;;;;;;5036191;28;20108;-78
2022/06/03 12:18:16;;;;;;;1.90;1.23;;;;;;;;;;5035131;28;20485;-78
2022/06/03 12:20:47;;;;;;;5.63;1.50;;;;;;;;;;5018030;28;20128;-78
2022/06/03 12:23:12;;;;;;;3.50;1.35;;;;;;;;;;5035978;28;20104;-77
2022/06/03 12:25:41;;;;;;;1.33;1.23;;;;;;;;;;5037410;28;20449;-77
2022/06/03 12:28:54;;;;;;;1.67;1.20;;;;;;;;;;5035625;28;20034;-78
2022/06/03 12:31:22;;;;;;;1.63;1.15;;;;;;;;;;5013561;28;20065;-77
2022/06/03 12:34:06;;;;;;;1.30;1.13;;;;;;;;;;5013218;28;20433;-76
2022/06/03 12:36:52;;;;;;;2.85;1.30;;;;;;;;;;5013003;28;20018;-78
2022/06/03 12:39:31;;;;;;;3.35;1.30;;;;;;;;;;5012868;28;20041;-78
2022/06/03 12:42:08;;;;;;;3.90;1.40;;;;;;;;;;4995089;28;20033;-79
2022/06/03 12:44:56;;;;;;;1.55;1.20;;;;;;;;;;4994777;28;20026;-78
2022/06/03 12:47:33;;;;;;;1.13;1.02;;;;;;;;;;5009083;28;20072;-79
2022/06/03 12:50:04;;;;;;;1.55;1.20;;;;;;;;;;5011248;28;20033;-78
2022/06/03 12:52:30;;;;;;;1.10;1.00;;;;;;;;;;5012019;28;20116;-78
2022/06/03 12:55:05;;;;;;;1.40;1.30;;;;;;;;;;5011370;28;20446;-78
2022/06/03 12:57:54;;;;;;;4.43;1.10;;;;;;;;;;5010895;28;20079;-78
2022/06/03 13:00:50;;;;;;;1.50;0.95;;;;;;;;;;5011037;28;20061;-78
2022/06/03 13:03:15;;;;;;;5.47;1.30;;;;;;;;;;4978290;28;20048;-79
2022/06/03 13:05:52;;;;;;;1.60;1.20;;;;;;;;;;5025228;28;20049;-79
2022/06/03 13:08:26;;;;;;;3.80;1.40;;;;;;;;;;5014834;28;20267;-79
2022/06/03 13:11:04;;;;;;;1.63;1.25;;;;;;;;;;5047770;28;20025;-78
2022/06/03 13:13:30;;;;;;;1.48;1.10;;;;;;;;;;5031309;28;20095;-78
2022/06/03 13:16:14;;;;;;;1.20;1.10;;;;;;;;;;5047825;28;20029;-78
2022/06/03 13:18:43;;;;;;;1.45;1.30;;;;;;;;;;5047739;28;20095;-78
2022/06/03 13:21:08;;;;;;;1.85;1.05;;;;;;;;;;5031559;28;20036;-79
2022/06/03 13:23:44;;;;;;;2.83;1.20;;;;;;;;;;5047683;28;20417;-79
2022/06/03 13:26:16;;;;;;;1.17;1.17;;;;;;;;;;5046724;28;20040;-79
2022/06/03 13:28:43;;;;;;;3.55;1.10;;;;;;;;;;5048227;28;20116;-78
2022/06/03 13:31:12;;;;;;;4.03;1.38;;;;;;;;;;5031258;28;20044;-79
2022/06/03 13:34:07;;;;;;;1.60;1.13;;;;;;;;;;5048066;28;20022;-79
2022/06/03 13:36:43;;;;;;;1.48;0.90;;;;;;;;;;5048796;28;20029;-78
2022/06/03 13:39:32;;;;;;;1.10;1.10;;;;;;;;;;5049446;28;20167;-78
2022/06/03 13:44:44;;;;;;;1.23;1.00;;;;;;;;;;5034729;28;20102;-79
2022/06/03 13:47:19;;;;;;;1.00;0.90;;;;;;;;;;5048964;28;20036;-80
2022/06/03 13:49:52;;;;;;;1.35;1.10;;;;;;;;;;5034767;28;20022;-79
2022/06/03 13:52:23;;;;;;;1.02;1.00;;;;;;;;;;5017935;28;20492;-80
2022/06/03 13:54:52;;;;;;;3.50;1.13;;;;;;;;;;5033700;28;20033;-79
2022/06/03 13:57:26;;;;;;;1.10;1.02;;;;;;;;;;5032881;28;20022;-80
2022/06/03 14:00:06;;;;;;;1.10;1.00;;;;;;;;;;5034510;28;20028;-80
2022/06/03 14:02:37;;;;;;;0.90;0.90;;;;;;;;;;5031888;28;20034;-79
2022/06/03 14:05:13;;;;;;;1.20;1.10;;;;;;;;;;5031985;28;20087;-79
2022/06/03 14:07:41;;;;;;;2.15;1.00;;;;;;;;;;5015075;28;20103;-80
2022/06/03 14:10:18;;;;;;;1.30;1.20;;;;;;;;;;5048806;28;20029;-79
2022/06/03 14:13:03;;;;;;;0.98;0.90;;;;;;;;;;5033946;28;20028;-79
2022/06/03 14:15:38;;;;;;;1.05;1.05;;;;;;;;;;5016590;28;20044;-79
2022/06/03 14:18:03;;;;;;;1.20;1.10;;;;;;;;;;5016021;28;20049;-79
2022/06/03 14:20:41;;;;;;;0.93;0.93;;;;;;;;;;5031938;28;20026;-79
2022/06/03 14:23:18;;;;;;;2.97;1.20;;;;;;;;;;5032151;28;20063;-78
2022/06/03 14:26:04;;;;;;;1.00;1.00;;;;;;;;;;5047961;28;20030;-80
2022/06/03 14:28:55;;;;;;;1.17;0.93;;;;;;;;;;5032531;28;20123;-80
2022/06/03 14:31:42;;;;;;;2.35;1.30;;;;;;;;;;5031429;28;20029;-80
2022/06/03 14:34:25;;;;;;;1.00;1.00;;;;;;;;;;5014208;28;20036;-80
2022/06/03 14:36:52;;;;;;;1.52;1.25;;;;;;;;;;5050006;28;20077;-80
2022/06/03 14:39:30;;;;;;;1.70;1.58;;;;;;;;;;5019017;28;20508;-80
2022/06/03 14:41:59;;;;;;;4.88;1.10;;;;;;;;;;5035408;28;20096;-79
2022/06/03 14:44:26;;;;;;;1.30;1.20;;;;;;;;;;5036219;28;20056;-79
2022/06/03 14:47:02;;;;;;;1.25;1.15;;;;;;;;;;5035334;28;20021;-78
2022/06/03 14:49:33;;;;;;;4.38;1.10;;;;;;;;;;5035973;28;20021;-79
2022/06/03 14:52:10;;;;;;;1.52;1.00;;;;;;;;;;5018381;28;20025;-79
2022/06/03 14:54:40;;;;;;;1.13;1.02;;;;;;;;;;5034866;28;20029;-80
2022/06/03 14:57:06;;;;;;;1.25;1.08;;;;;;;;;;5034858;28;20090;-79
2022/06/03 14:59:53;;;;;;;1.15;1.15;;;;;;;;;;5034864;28;20025;-78
2022/06/03 15:02:55;;;;;;;1.35;1.20;;;;;;;;;;5051432;28;20037;-79
2022/06/03 15:05:26;;;;;;;4.90;1.80;;;;;;;;;;5035633;28;20022;-80
2022/06/03 15:08:03;;;;;;;2.65;1.30;;;;;;;;;;5034573;28;20045;-79
2022/06/03 15:10:29;;;;;;;1.08;0.98;;;;;;;;;;5036963;28;20034;-81
2022/06/03 15:12:58;;;;;;;1.33;1.23;;;;;;;;;;5034873;28;20102;-80
2022/06/03 15:15:34;;;;;;;1.10;1.10;;;;;;;;;;5034549;28;20363;-80
2022/06/03 15:18:11;;;;;;;1.88;1.23;;;;;;;;;;5035194;28;20029;-80
2022/06/03 15:20:36;;;;;;;3.90;1.60;;;;;;;;;;5035485;28;20022;-79
2022/06/03 15:23:04;;;;;;;4.38;1.90;;;;;;;;;;5018379;28;20397;-80
2022/06/03 15:25:34;;;;;;;2.00;1.30;;;;;;;;;;5036213;28;20032;-80
2022/06/03 15:28:09;;;;;;;2.17;1.50;;;;;;;;;;5036342;28;20029;-81
2022/06/03 15:30:54;;;;;;;2.78;1.38;;;;;;;;;;5020129;28;20030;-82
2022/06/03 15:33:26;;;;;;;5.25;1.85;;;;;;;;;;5051705;28;20030;-81
2022/06/03 15:35:59;;;;;;;3.25;1.85;;;;;;;;;;5035575;28;20014;-80
2022/06/03 15:38:25;;;;;;;;;;;;;;;;;;5036839;28;20039;-81
2022/06/03 15:41:04;;;;;;;3.40;1.73;;;;;;;;;;5021667;28;19952;-79
2022/06/03 15:43:40;;;;;;;3.63;1.73;;;;;;;;;;5018105;28;20026;-79
2022/06/03 15:46:06;;;;;;;3.65;1.90;;;;;;;;;;5033352;28;20033;-79
2022/06/03 15:48:32;;;;;;;3.30;1.70;;;;;;;;;;5016069;28;20029;-79
2022/06/03 15:51:01;;;;;;;4.72;1.83;;;;;;;;;;5031217;28;20103;-78
2022/06/03 15:53:34;;;;;;;9.50;3.03;;;;;;;;;;5063943;28;20021;-79
2022/06/03 15:56:07;;;;;;;2.97;1.63;;;;;;;;;;5044903;28;20018;-79
2022/06/03 15:58:41;;;;;;;6.03;1.75;;;;;;;;;;5051500;28;20041;-80
2022/06/03 16:01:29;;;;;;;6.18;1.92;;;;;;;;;;5035551;28;20025;-78
2022/06/03 16:04:09;;;;;;;3.20;1.65;;;;;;;;;;5034158;28;20056;-78
2022/06/03 16:06:42;;;;;;;5.28;2.00;;;;;;;;;;5032890;28;20037;-80
2022/06/03 16:09:36;;;;;;;4.35;1.60;;;;;;;;;;5016529;28;20163;-78
2022/06/03 16:12:04;;;;;;;2.90;1.70;;;;;;;;;;5032182;28;20397;-79
2022/06/03 16:14:54;;;;;;;3.58;1.60;;;;;;;;;;5034756;28;20079;-79
2022/06/03 16:17:37;;;;;;;2.58;1.70;;;;;;;;;;5049815;28;20450;-79
2022/06/03 16:20:15;;;;;;;2.88;1.50;;;;;;;;;;5033362;28;20030;-79
2022/06/03 16:23:08;;;;;;;1.55;1.42;;;;;;;;;;5032778;28;20166;-78